Time;durP1;ratioP1;P1;durP2;ratioP2;P2;SDS_P1;SDS_P2;PMS_P1;PMS_P2;Temp;Humidity;BMP_temperature;BMP_pressure;BME280_temperature;BME280_humidity;BME280_pressure;Samples;Min_cycle;Max_cycle;Signal;HPM_P1;HPM_P2
2022/06/13 00:00:46;;;;;;;;;7.00;7.00;;;;;22.08;39.13;101763.94;2105415;27;46217;-63
2022/06/13 00:01:47;;;;;;;;;7.75;7.25;;;;;22.07;39.08;101764.00;2095741;28;45776;-61
2022/06/13 00:02:48;;;;;;;;;13.25;13.25;;;;;22.06;39.34;101770.38;2097488;28;47472;-63
2022/06/13 00:03:49;;;;;;;;;9.25;9.25;;;;;22.03;39.02;101769.56;2103580;28;47472;-63
2022/06/13 00:04:49;;;;;;;;;7.50;7.00;;;;;22.02;39.53;101766.94;2108444;27;47664;-62
2022/06/13 00:05:50;;;;;;;;;6.00;6.00;;;;;22.00;39.39;101763.44;2103152;27;47688;-62
2022/06/13 00:06:50;;;;;;;;;3.67;3.67;;;;;21.99;39.16;101765.28;2109149;27;47407;-63
2022/06/13 00:07:51;;;;;;;;;3.00;3.00;;;;;21.98;39.24;101768.94;2111528;27;48601;-60
2022/06/13 00:08:51;;;;;;;;;4.00;4.00;;;;;21.94;39.07;101763.75;2106497;27;47657;-63
2022/06/13 00:09:52;;;;;;;;;5.00;3.00;;;;;21.91;39.29;101766.63;2109990;27;47663;-62
2022/06/13 00:10:53;;;;;;;;;3.67;3.67;;;;;21.90;39.60;101768.44;2106744;27;47637;-61
2022/06/13 00:11:53;;;;;;;;;4.00;3.00;;;;;21.88;39.37;101770.38;2108473;27;47597;-62
2022/06/13 00:12:54;;;;;;;;;3.67;2.67;;;;;21.88;39.25;101769.50;2107455;27;47865;-62
2022/06/13 00:13:55;;;;;;;;;3.00;2.00;;;;;21.88;39.41;101773.06;2103231;27;47875;-61
2022/06/13 00:14:56;;;;;;;;;2.50;1.75;;;;;21.88;39.56;101780.31;2099977;27;47946;-61
2022/06/13 00:15:56;;;;;;;;;3.00;3.00;;;;;21.86;39.66;101776.81;2106777;27;47938;-62
2022/06/13 00:16:56;;;;;;;;;4.33;3.67;;;;;21.84;39.64;101773.28;2105700;27;47167;-62
2022/06/13 00:17:57;;;;;;;;;6.00;5.00;;;;;21.85;39.84;101772.34;2107588;27;47133;-61
2022/06/13 00:18:58;;;;;;;;;3.00;2.00;;;;;21.85;40.00;101767.84;2100661;27;47831;-62
2022/06/13 00:19:58;;;;;;;;;3.67;3.67;;;;;21.86;39.99;101776.81;2112646;27;47716;-62
2022/06/13 00:20:59;;;;;;;;;2.67;2.67;;;;;21.87;39.81;101773.16;2109658;27;47436;-61
2022/06/13 00:21:59;;;;;;;;;2.33;2.33;;;;;21.87;39.60;101773.16;2108549;27;48166;-63
2022/06/13 00:22:59;;;;;;;;;4.33;3.67;;;;;21.84;39.70;101768.75;2102225;27;47878;-63
2022/06/13 00:24:03;;;;;;;;;3.33;3.33;;;;;21.83;40.25;101761.59;2102714;27;47457;-62
2022/06/13 00:25:04;;;;;;;;;2.00;2.00;;;;;21.81;40.15;101774.31;2110061;27;47777;-63
2022/06/13 00:26:04;;;;;;;;;4.67;3.33;;;;;21.80;40.15;101769.00;2093866;28;47599;-63
2022/06/13 00:27:05;;;;;;;;;4.00;1.33;;;;;21.77;39.80;101767.34;2095561;28;47958;-62
2022/06/13 00:28:06;;;;;;;;;2.00;2.00;;;;;21.74;40.19;101767.50;2109602;27;47840;-63
2022/06/13 00:29:06;;;;;;;;;3.00;3.00;;;;;21.71;40.50;101768.50;2102037;27;47926;-62
2022/06/13 00:30:08;;;;;;;;;3.00;3.00;;;;;21.70;40.19;101776.69;2108283;27;47570;-62
2022/06/13 00:31:09;;;;;;;;;2.00;2.00;;;;;21.68;40.09;101773.22;2103091;27;47245;-61
2022/06/13 00:32:10;;;;;;;;;3.00;3.00;;;;;21.65;40.54;101768.84;2102257;27;47605;-61
2022/06/13 00:33:10;;;;;;;;;3.00;3.00;;;;;21.64;40.55;101767.09;2110075;27;47836;-62
2022/06/13 00:34:10;;;;;;;;;2.00;2.00;;;;;21.62;40.74;101768.13;2100360;27;47968;-62
2022/06/13 00:35:11;;;;;;;;;5.00;4.00;;;;;21.60;40.69;101770.91;2105359;27;47423;-61
2022/06/13 00:36:12;;;;;;;;;3.67;3.67;;;;;21.57;40.94;101768.34;2109756;27;48374;-62
2022/06/13 00:37:13;;;;;;;;;2.50;2.50;;;;;21.57;40.60;101768.34;2102153;27;48037;-62
2022/06/13 00:38:14;;;;;;;;;4.33;4.33;;;;;21.55;40.37;101772.09;2107924;27;47521;-61
2022/06/13 00:39:15;;;;;;;;;2.25;2.00;;;;;21.53;40.39;101774.00;2104199;27;48189;-61
2022/06/13 00:40:16;;;;;;;;;13.80;13.80;;;;;21.51;40.61;101781.31;2101483;28;47573;-61
2022/06/13 00:41:23;;;;;;;;;3.00;3.00;;;;;21.47;40.90;101763.50;2111751;27;47618;-63
2022/06/13 00:42:25;;;;;;;;;3.00;2.00;;;;;21.43;40.37;101771.75;2107463;27;47859;-62
2022/06/13 00:43:25;;;;;;;;;2.50;2.50;;;;;21.41;41.05;101767.38;2110243;27;47474;-61
2022/06/13 00:44:34;;;;;;;;;1.00;1.00;;;;;21.38;40.63;101767.56;2104482;28;48136;-61
2022/06/13 00:45:36;;;;;;;;;4.00;2.50;;;;;21.35;41.16;101771.28;2111527;27;46956;-61
2022/06/13 00:46:36;;;;;;;;;4.00;4.00;;;;;21.31;41.11;101764.25;2110240;27;48358;-62
2022/06/13 00:47:39;;;;;;;;;3.33;3.33;;;;;21.29;40.79;101768.00;2102000;27;48305;-61
2022/06/13 00:48:39;;;;;;;;;5.50;4.50;;;;;21.26;41.20;101763.63;2103706;27;48433;-62
2022/06/13 00:49:44;;;;;;;;;5.00;4.00;;;;;21.23;41.29;101760.19;2096801;28;47617;-61
2022/06/13 00:50:52;;;;;;;;;4.75;2.50;;;;;21.17;41.28;101755.94;2101719;27;48360;-61
2022/06/13 00:52:05;;;;;;;;;2.00;2.00;;;;;21.12;40.84;101753.47;2102995;27;47974;-61
2022/06/13 00:53:11;;;;;;;;;3.75;2.50;;;;;21.10;41.45;101754.50;2098517;27;47522;-61
2022/06/13 00:54:15;;;;;;;;;3.50;2.25;;;;;21.07;41.01;101757.34;2102571;27;47617;-62
2022/06/13 00:55:26;;;;;;;;;3.00;3.00;;;;;21.05;41.73;101757.41;2104994;27;47915;-62
2022/06/13 00:56:31;;;;;;;;;3.25;2.75;;;;;21.04;41.58;101758.38;2099813;27;48153;-62
2022/06/13 00:57:32;;;;;;;;;3.50;3.50;;;;;21.04;41.51;101755.66;2105485;27;47572;-62
2022/06/13 00:58:42;;;;;;;;;3.67;3.67;;;;;21.05;42.12;101749.31;2104905;27;47895;-63
2022/06/13 00:59:43;;;;;;;;;3.25;3.25;;;;;21.05;41.44;101749.31;2100155;27;47591;-62
2022/06/13 01:00:47;;;;;;;;;3.80;3.80;;;;;21.05;41.66;101752.03;2100048;27;47799;-62
2022/06/13 01:01:48;;;;;;;;;3.60;3.60;;;;;21.05;41.75;101751.16;2105673;27;47645;-61
2022/06/13 01:02:50;;;;;;;;;1.33;1.33;;;;;21.03;41.74;101753.06;2104758;28;48291;-61
2022/06/13 01:03:51;;;;;;;;;5.00;3.75;;;;;21.01;41.76;101746.84;2095428;28;47909;-61
2022/06/13 01:04:53;;;;;;;;;4.00;4.00;;;;;21.01;42.19;101746.84;2096234;28;48115;-61
2022/06/13 01:05:56;;;;;;;;;7.40;5.00;;;;;21.02;42.22;101748.59;2098871;28;47559;-61
2022/06/13 01:06:57;;;;;;;;;2.75;2.75;;;;;21.03;42.07;101747.66;2106894;27;47849;-62
2022/06/13 01:08:00;;;;;;;;;5.67;5.00;;;;;21.04;41.76;101742.19;2105810;27;47532;-62
2022/06/13 01:09:06;;;;;;;;;3.25;3.25;;;;;21.05;42.56;101735.81;2099503;27;47596;-62
2022/06/13 01:11:26;;;;;;;;;2.00;2.00;;;;;21.07;42.44;101736.63;2093448;28;47510;-63
2022/06/13 01:12:28;;;;;;;;;2.33;2.33;;;;;21.06;41.72;101740.28;2088826;28;47163;-63
2022/06/13 01:13:43;;;;;;;;;5.25;3.25;;;;;21.05;42.21;101745.75;2097824;28;48382;-63
2022/06/13 01:15:22;;;;;;;;;2.25;2.25;;;;;21.02;42.28;101741.38;2105205;27;47800;-62
2022/06/13 01:16:40;;;;;;;;;1.25;1.25;;;;;21.04;41.96;101738.59;2078235;28;47728;-61
2022/06/13 01:17:48;;;;;;;;;4.00;4.00;;;;;21.01;42.57;101733.38;2078609;28;47536;-62
2022/06/13 01:19:16;;;;;;;;;1.50;1.50;;;;;20.98;42.47;101729.00;2076457;28;47207;-63
2022/06/13 01:20:35;;;;;;;;;3.75;3.25;;;;;20.95;41.89;101737.22;2077115;28;46731;-61
2022/06/13 01:21:57;;;;;;;;;4.00;4.00;;;;;20.93;42.58;101736.44;2074443;28;47353;-62
2022/06/13 01:23:03;;;;;;;;;3.50;3.50;;;;;20.90;42.82;101741.09;2078606;28;48186;-61
2022/06/13 01:24:25;;;;;;;;;4.00;3.00;;;;;20.87;42.41;101734.03;2078686;28;47499;-61
2022/06/13 01:26:10;;;;;;;;;2.25;2.25;;;;;20.86;42.38;101735.00;2072794;28;47750;-63
2022/06/13 01:27:26;;;;;;;;;2.75;2.75;;;;;20.86;42.41;101741.25;2029975;29;47578;-63
2022/06/13 01:28:52;;;;;;;;;4.00;4.00;;;;;20.86;43.13;101737.69;2029731;28;48364;-62
2022/06/13 01:30:34;;;;;;;;;2.00;2.00;;;;;20.85;43.03;101731.41;2035966;28;47971;-62
2022/06/13 01:31:46;;;;;;;;;3.00;2.25;;;;;20.84;42.62;101726.97;1998626;29;48092;-63
2022/06/13 01:32:58;;;;;;;;;3.75;3.00;;;;;20.85;42.75;101733.25;2003095;29;48465;-63
2022/06/13 01:34:29;;;;;;;;;3.25;2.00;;;;;20.85;43.12;101723.31;2004690;29;48140;-61
2022/06/13 01:36:07;;;;;;;;;3.00;3.00;;;;;20.83;43.11;101727.03;2004512;29;47811;-62
2022/06/13 01:37:40;;;;;;;;;6.00;4.00;;;;;20.79;43.01;101717.34;1996460;29;47511;-62
2022/06/13 01:39:00;;;;;;;;;1.50;1.50;;;;;20.76;42.83;101720.19;1997878;29;48267;-62
2022/06/13 01:40:20;;;;;;;;;4.00;2.80;;;;;20.73;43.17;101729.31;1994477;29;48224;-63
2022/06/13 01:41:53;;;;;;;;;2.60;2.60;;;;;20.71;42.92;101725.81;1999604;29;48040;-63
2022/06/13 01:43:06;;;;;;;;;5.00;3.00;;;;;20.67;43.55;101734.97;1999260;29;48393;-61
2022/06/13 01:44:22;;;;;;;;;2.60;2.60;;;;;20.64;43.16;101727.03;1998870;29;47419;-62
2022/06/13 01:45:38;;;;;;;;;1.00;1.00;;;;;20.63;43.18;101735.22;2004481;29;47844;-61
2022/06/13 01:46:41;;;;;;;;;3.50;3.50;;;;;20.61;43.57;101732.59;2000419;29;47685;-62
2022/06/13 01:48:06;;;;;;;;;3.80;3.80;;;;;20.58;43.44;101730.00;2000313;29;47531;-63
2022/06/13 01:49:19;;;;;;;;;3.75;2.00;;;;;20.58;43.55;101735.41;1998527;29;45697;-62
2022/06/13 01:50:23;;;;;;;;;4.50;2.00;;;;;20.59;43.99;101736.31;1998860;29;47652;-62
2022/06/13 01:52:08;;;;;;;;;3.00;3.00;;;;;20.58;43.42;101740.81;1998936;29;47772;-61
2022/06/13 01:53:25;;;;;;;;;2.00;2.00;;;;;20.54;43.80;101737.38;1971601;29;47993;-61
2022/06/13 01:54:36;;;;;;;;;3.00;3.00;;;;;20.53;44.35;101743.72;1982299;29;48024;-62
2022/06/13 01:55:46;;;;;;;;;3.60;3.60;;;;;20.53;43.89;101732.06;1978299;29;47063;-61
2022/06/13 01:57:24;;;;;;;;;3.00;3.00;;;;;20.51;43.90;101736.66;1978256;29;47898;-62
2022/06/13 01:58:44;;;;;;;;;3.40;3.20;;;;;20.50;44.31;101741.19;1978111;29;47580;-61
2022/06/13 02:00:03;;;;;;;;;2.00;2.00;;;;;20.50;44.33;101741.19;1983876;29;47636;-61
2022/06/13 02:01:14;;;;;;;;;4.00;3.00;;;;;20.50;44.08;101741.19;1973147;29;47552;-62
2022/06/13 02:02:40;;;;;;;;;3.00;3.00;;;;;20.49;44.54;101742.13;1976275;29;48172;-61
2022/06/13 02:03:47;;;;;;;;;4.60;3.40;;;;;20.46;44.27;101739.59;1983521;29;48552;-60
2022/06/13 02:04:59;;;;;;;;;3.00;3.00;;;;;20.45;44.52;101740.50;1995140;29;47826;-61
2022/06/13 02:06:06;;;;;;;;;4.40;4.40;;;;;20.47;44.11;101740.47;2014167;29;47718;-62
2022/06/13 02:07:18;;;;;;;;;4.20;3.60;;;;;20.49;44.72;101735.88;2021591;29;48004;-62
2022/06/13 02:08:23;;;;;;;;;2.00;2.00;;;;;20.52;44.35;101743.81;2022261;29;48269;-62
2022/06/13 02:09:28;;;;;;;;;2.20;2.20;;;;;20.53;44.30;101740.16;2047196;28;47728;-61
2022/06/13 02:10:38;;;;;;;;;4.60;4.60;;;;;20.55;44.77;101740.97;2043044;28;47830;-61
2022/06/13 02:11:48;;;;;;;;;5.20;3.80;;;;;20.60;44.55;101740.75;2049321;28;47936;-61
2022/06/13 02:12:54;;;;;;;;;4.00;4.00;;;;;20.61;44.39;101735.28;2053542;28;47736;-61
2022/06/13 02:14:08;;;;;;;;;4.40;4.40;;;;;20.61;44.68;101732.59;2052831;28;47590;-62
2022/06/13 02:15:24;;;;;;;;;3.80;3.40;;;;;20.61;44.57;101735.28;2047016;28;47595;-63
2022/06/13 02:16:32;;;;;;;;;3.40;3.40;;;;;20.62;44.64;101733.47;2053696;28;47414;-62
2022/06/13 02:17:41;;;;;;;;;3.20;3.20;;;;;20.63;44.88;101741.47;2052704;28;47708;-62
2022/06/13 02:19:00;;;;;;;;;4.00;4.00;;;;;20.63;44.33;101735.22;2051840;28;48101;-61
2022/06/13 02:20:06;;;;;;;;;4.60;4.60;;;;;20.62;44.52;101739.72;2041845;28;47870;-64
2022/06/13 02:21:10;;;;;;;;;3.80;3.60;;;;;20.62;44.63;101733.47;2046193;28;47592;-62
2022/06/13 02:22:30;;;;;;;;;5.60;4.40;;;;;20.61;44.27;101731.72;2050659;28;47753;-61
2022/06/13 02:23:40;;;;;;;;;5.20;3.60;;;;;20.62;44.88;101734.34;2049454;28;48037;-61
2022/06/13 02:24:48;;;;;;;;;7.00;5.80;;;;;20.63;44.46;101733.38;2050433;28;48305;-63
2022/06/13 02:25:55;;;;;;;;;5.80;4.80;;;;;20.62;44.33;101731.66;2052638;28;47727;-60
2022/06/13 02:26:59;;;;;;;;;5.40;5.40;;;;;20.61;44.82;101732.59;2054322;28;47882;-61
2022/06/13 02:28:06;;;;;;;;;6.00;5.00;;;;;20.61;44.51;101732.59;2054401;28;47892;-62
2022/06/13 02:29:18;;;;;;;;;5.00;4.50;;;;;20.57;44.84;101730.97;2052801;28;47088;-60
2022/06/13 02:30:21;;;;;;;;;3.00;3.00;;;;;20.53;44.95;101741.03;2070874;28;47986;-62
2022/06/13 02:31:35;;;;;;;;;6.80;4.80;;;;;20.49;44.82;101731.34;2097602;28;48131;-61
2022/06/13 02:32:50;;;;;;;;;3.60;3.60;;;;;20.46;44.73;101725.22;2099466;28;47861;-61
2022/06/13 02:34:10;;;;;;;;;6.00;4.25;;;;;20.41;45.16;101732.59;2094383;28;47930;-62
2022/06/13 02:35:16;;;;;;;;;3.20;3.20;;;;;20.38;45.05;101735.44;2092643;27;47369;-62
2022/06/13 02:36:26;;;;;;;;;8.40;6.00;;;;;20.35;45.03;101730.22;2099098;28;47778;-61
2022/06/13 02:38:11;;;;;;;;;7.60;4.60;;;;;20.29;45.23;101728.66;2100466;28;48251;-61
2022/06/13 02:39:29;;;;;;;;;4.00;4.00;;;;;20.24;45.51;101731.56;2097661;28;47260;-61
2022/06/13 02:40:38;;;;;;;;;5.75;4.25;;;;;20.20;45.55;101732.66;2098815;28;47825;-59
2022/06/13 02:42:07;;;;;;;;;4.75;4.50;;;;;20.16;45.61;101728.34;2090961;28;47779;-60
2022/06/13 02:43:56;;;;;;;;;6.00;4.00;;;;;20.11;45.78;101730.38;2096545;28;48325;-60
2022/06/13 02:45:06;;;;;;;;;4.75;4.75;;;;;20.05;45.71;101722.56;2080849;28;47934;-59
2022/06/13 02:46:31;;;;;;;;;7.50;4.75;;;;;20.02;45.95;101725.41;2080523;28;47680;-60
2022/06/13 02:47:41;;;;;;;;;6.20;6.00;;;;;19.99;45.90;101729.13;2080218;28;48348;-60
2022/06/13 02:48:52;;;;;;;;;5.50;3.75;;;;;19.97;46.10;101732.81;2082665;28;48032;-60
2022/06/13 02:50:04;;;;;;;;;4.00;4.00;;;;;19.91;46.24;101733.09;2076180;28;47742;-60
2022/06/13 02:51:32;;;;;;;;;6.00;6.00;;;;;19.85;46.35;101730.69;2077977;28;47319;-63
2022/06/13 02:52:42;;;;;;;;;5.25;4.50;;;;;19.80;46.85;101729.97;2079157;28;48131;-62
2022/06/13 02:53:53;;;;;;;;;4.50;4.50;;;;;19.78;46.50;101731.88;2080667;28;47882;-61
2022/06/13 02:54:57;;;;;;;;;6.50;5.75;;;;;19.76;46.34;101739.16;2080955;28;47709;-61
2022/06/13 02:56:22;;;;;;;;;5.60;4.60;;;;;19.75;46.53;101729.31;2080711;28;47790;-61
2022/06/13 02:57:29;;;;;;;;;5.40;5.40;;;;;19.72;46.80;101733.03;2078425;28;47688;-61
2022/06/13 02:58:44;;;;;;;;;5.20;5.20;;;;;19.70;46.84;101724.16;2083934;28;47559;-62
2022/06/13 02:59:53;;;;;;;;;6.00;6.00;;;;;19.70;46.85;101734.91;2079922;28;48319;-61
2022/06/13 03:01:11;;;;;;;;;7.40;6.80;;;;;19.69;46.76;101736.75;2080582;28;47856;-62
2022/06/13 03:02:16;;;;;;;;;6.60;6.20;;;;;19.69;47.03;101725.97;2086095;28;47601;-62
2022/06/13 03:04:00;;;;;;;;;8.80;7.40;;;;;19.67;46.98;101733.22;2079974;28;48155;-63
2022/06/13 03:05:14;;;;;;;;;6.00;4.25;;;;;19.68;47.25;101734.09;2059361;28;47663;-60
2022/06/13 03:06:31;;;;;;;;;6.00;6.00;;;;;19.68;47.39;101734.09;2059846;28;48379;-62
2022/06/13 03:07:38;;;;;;;;;5.00;5.00;;;;;19.68;47.12;101732.28;2064022;28;48073;-62
2022/06/13 03:09:02;;;;;;;;;6.00;6.00;;;;;19.68;46.90;101737.66;2064260;28;47518;-61
2022/06/13 03:10:15;;;;;;;;;5.00;5.00;;;;;19.68;47.61;101740.34;2064792;28;47226;-61
2022/06/13 03:11:39;;;;;;;;;6.25;6.25;;;;;19.67;46.99;101738.59;2065194;28;48108;-62
2022/06/13 03:13:11;;;;;;;;;5.00;5.00;;;;;19.67;47.76;101743.09;2064862;28;47602;-61
2022/06/13 03:14:30;;;;;;;;;3.25;3.25;;;;;19.67;47.33;101738.59;2039759;28;47447;-62
2022/06/13 03:15:50;;;;;;;;;6.00;6.00;;;;;19.69;47.37;101738.53;2032146;29;47320;-61
2022/06/13 03:17:02;;;;;;;;;5.50;5.25;;;;;19.67;47.33;101741.28;2042032;28;47740;-63
2022/06/13 03:18:10;;;;;;;;;9.00;8.00;;;;;19.69;47.45;101749.31;2030951;28;47714;-63
2022/06/13 03:19:17;;;;;;;;;10.75;8.00;;;;;19.69;47.33;101749.31;2031956;28;48231;-62
2022/06/13 03:20:39;;;;;;;;;7.75;6.00;;;;;19.68;47.78;101752.94;2052023;28;47800;-62
2022/06/13 03:22:07;;;;;;;;;4.50;4.50;;;;;19.66;47.84;101747.63;2055973;28;47372;-61
2022/06/13 03:23:23;;;;;;;;;5.75;5.75;;;;;19.64;47.62;101749.50;2059248;28;47871;-61
2022/06/13 03:24:23;;;;;;;;;6.00;6.00;;;;;19.63;47.76;101750.47;2054648;28;47748;-62
2022/06/13 03:25:30;;;;;;;;;6.67;6.67;;;;;19.63;47.72;101753.16;2062169;28;46435;-63
2022/06/13 03:26:39;;;;;;;;;6.00;6.00;;;;;19.63;47.88;101753.16;2058488;28;47595;-62
2022/06/13 03:27:42;;;;;;;;;5.80;5.80;;;;;19.63;48.13;101752.28;2054385;28;47807;-62
2022/06/13 03:29:17;;;;;;;;;5.50;5.00;;;;;19.62;47.67;101762.16;2060506;28;48102;-61
2022/06/13 03:30:20;;;;;;;;;7.50;5.00;;;;;19.61;47.56;101763.13;2050032;28;47288;-62
2022/06/13 03:31:43;;;;;;;;;6.50;5.00;;;;;19.60;48.03;101757.78;2061256;28;48013;-63
2022/06/13 03:33:39;;;;;;;;;5.25;5.25;;;;;19.60;48.01;101760.50;2054342;28;47344;-62
2022/06/13 03:34:18;;;;;;;;;7.00;6.25;;;;;19.57;47.80;101760.63;2054214;28;47891;-62
2022/06/13 03:35:19;;;;;;;;;6.25;5.50;;;;;19.54;47.99;101758.88;2058882;28;45920;-62
2022/06/13 03:36:40;;;;;;;;;6.00;5.75;;;;;19.52;48.30;101768.84;2060855;28;47739;-61
2022/06/13 03:37:46;;;;;;;;;6.00;6.00;;;;;19.51;48.24;101758.16;2054667;28;48156;-62
2022/06/13 03:39:21;;;;;;;;;7.75;7.25;;;;;19.51;48.32;101767.09;2053101;28;48091;-62
2022/06/13 03:40:26;;;;;;;;;4.75;4.75;;;;;19.50;48.47;101764.47;2040535;28;47892;-62
2022/06/13 03:41:33;;;;;;;;;4.50;4.50;;;;;19.49;48.37;101768.09;2045735;28;47553;-62
2022/06/13 03:42:44;;;;;;;;;3.75;3.75;;;;;19.48;48.44;101769.06;2046403;28;47945;-60
2022/06/13 03:44:04;;;;;;;;;5.50;5.50;;;;;19.50;48.18;101769.84;2048625;28;47510;-60
2022/06/13 03:45:16;;;;;;;;;6.25;5.75;;;;;19.51;48.48;101771.59;2050371;28;47615;-61
2022/06/13 03:46:43;;;;;;;;;4.75;4.75;;;;;19.54;48.60;101774.16;2045899;28;47891;-62
2022/06/13 03:48:03;;;;;;;;;5.50;5.50;;;;;19.55;48.28;101771.44;2039171;28;47344;-62
2022/06/13 03:49:14;;;;;;;;;7.25;5.25;;;;;19.58;48.60;101762.38;2042219;28;47880;-62
2022/06/13 03:50:28;;;;;;;;;5.00;5.00;;;;;19.58;48.37;101771.34;2047489;28;47949;-62
2022/06/13 03:51:37;;;;;;;;;5.60;4.80;;;;;19.61;48.45;101767.63;2038510;28;46918;-61
2022/06/13 03:52:42;;;;;;;;;7.40;5.20;;;;;19.60;48.25;101769.44;2064731;28;47616;-62
2022/06/13 03:53:47;;;;;;;;;6.00;4.25;;;;;19.58;48.48;101767.75;2071468;28;47566;-61
2022/06/13 03:54:57;;;;;;;;;5.75;5.75;;;;;19.57;48.21;101766.88;2069150;28;47505;-63
2022/06/13 03:56:07;;;;;;;;;6.80;5.00;;;;;19.57;48.34;101774.09;2070870;28;46903;-61
2022/06/13 03:57:19;;;;;;;;;5.80;5.80;;;;;19.58;48.19;101763.25;2070796;28;47517;-62
2022/06/13 03:58:28;;;;;;;;;3.00;2.75;;;;;19.60;48.73;101764.06;2068901;28;48089;-61
2022/06/13 03:59:43;;;;;;;;;6.40;5.60;;;;;19.62;48.49;101770.25;2070974;28;47749;-61
2022/06/13 04:00:52;;;;;;;;;6.00;5.60;;;;;19.64;48.29;101762.09;2070658;28;48062;-62
2022/06/13 04:02:06;;;;;;;;;4.75;4.00;;;;;19.67;48.23;101772.72;2070066;28;47834;-62
2022/06/13 04:03:07;;;;;;;;;4.25;4.25;;;;;19.68;48.12;101772.66;2071870;28;48469;-63
2022/06/13 04:04:17;;;;;;;;;4.75;4.00;;;;;19.70;48.49;101767.25;2076626;28;48255;-62
2022/06/13 04:05:27;;;;;;;;;6.25;5.00;;;;;19.71;48.75;101774.38;2065765;28;47939;-61
2022/06/13 04:06:33;;;;;;;;;8.00;7.00;;;;;19.73;48.34;101774.31;2071027;28;47759;-61
2022/06/13 04:07:37;;;;;;;;;5.00;4.50;;;;;19.72;48.25;101765.34;2071159;28;47794;-61
2022/06/13 04:08:38;;;;;;;;;6.75;6.50;;;;;19.74;48.08;101763.47;2070986;28;48132;-62
2022/06/13 04:09:44;;;;;;;;;5.75;5.25;;;;;19.77;48.13;101766.00;2070654;28;47824;-61
2022/06/13 04:11:07;;;;;;;;;6.00;4.75;;;;;19.80;48.19;101760.50;2062674;28;46879;-62
2022/06/13 04:12:29;;;;;;;;;7.00;6.75;;;;;19.79;48.28;101763.25;2051063;28;47843;-61
2022/06/13 04:13:47;;;;;;;;;6.75;4.75;;;;;19.77;48.22;101765.13;2058221;28;48172;-63
2022/06/13 04:14:59;;;;;;;;;6.20;5.00;;;;;19.75;48.20;101762.53;2061196;28;47565;-64
2022/06/13 04:16:14;;;;;;;;;5.25;4.75;;;;;19.74;48.45;101768.84;2061208;28;47253;-62
2022/06/13 04:17:39;;;;;;;;;5.25;4.00;;;;;19.75;48.54;101770.59;2058005;28;47660;-61
2022/06/13 04:18:57;;;;;;;;;4.25;3.50;;;;;19.77;48.74;101765.13;2063853;28;47653;-61
2022/06/13 04:20:33;;;;;;;;;6.75;6.75;;;;;19.82;48.55;101772.09;2062695;28;47652;-61
2022/06/13 04:22:03;;;;;;;;;4.50;4.50;;;;;19.84;48.36;101766.63;2054223;28;47743;-61
2022/06/13 04:23:31;;;;;;;;;5.00;4.50;;;;;19.82;48.16;101765.81;2053692;28;47824;-62
2022/06/13 04:25:01;;;;;;;;;4.00;4.00;;;;;19.81;48.71;101764.06;2054589;28;47999;-62
2022/06/13 04:26:18;;;;;;;;;5.00;5.00;;;;;19.79;48.19;101769.50;2054583;28;47732;-61
2022/06/13 04:27:29;;;;;;;;;6.75;5.00;;;;;19.76;48.47;101766.97;2054348;28;47773;-61
2022/06/13 04:28:48;;;;;;;;;6.75;5.75;;;;;19.74;48.70;101770.66;2054039;28;47882;-61
2022/06/13 04:30:02;;;;;;;;;5.50;5.25;;;;;19.70;48.28;101769.94;2054324;28;47610;-61
2022/06/13 04:31:08;;;;;;;;;7.25;6.25;;;;;19.66;48.65;101769.16;2046486;28;47479;-61
2022/06/13 04:32:15;;;;;;;;;7.25;6.75;;;;;19.67;48.42;101765.53;2047024;28;47725;-63
2022/06/13 04:33:32;;;;;;;;;5.75;5.75;;;;;19.65;48.46;101772.81;2053835;28;47268;-61
2022/06/13 04:34:38;;;;;;;;;7.00;6.50;;;;;19.63;48.21;101772.00;2054620;28;48360;-62
2022/06/13 04:35:40;;;;;;;;;6.50;4.75;;;;;19.63;48.44;101771.13;2056443;28;47536;-62
2022/06/13 04:36:43;;;;;;;;;7.25;6.00;;;;;19.62;48.65;101772.94;2054403;28;47628;-62
2022/06/13 04:37:46;;;;;;;;;5.00;5.00;;;;;19.63;48.48;101773.81;2057187;28;47693;-63
2022/06/13 04:38:52;;;;;;;;;6.75;6.75;;;;;19.62;48.62;101778.31;2056280;28;47820;-61
2022/06/13 04:39:58;;;;;;;;;8.00;6.00;;;;;19.62;48.79;101778.31;2049948;28;47817;-64
2022/06/13 04:41:02;;;;;;;;;9.00;7.50;;;;;19.60;48.67;101784.72;2048888;28;48050;-62
2022/06/13 04:42:06;;;;;;;;;9.00;6.00;;;;;19.57;48.54;101774.97;2042438;28;47714;-63
2022/06/13 04:43:09;;;;;;;;;6.50;6.00;;;;;19.56;48.83;101770.50;2054437;28;47810;-62
2022/06/13 04:44:17;;;;;;;;;6.00;6.00;;;;;19.56;48.89;101781.25;2053775;28;47856;-62
2022/06/13 04:45:20;;;;;;;;;7.00;7.00;;;;;19.54;48.75;101777.72;2051784;28;47454;-62
2022/06/13 04:46:25;;;;;;;;;11.50;10.50;;;;;19.54;48.45;101772.34;2054109;28;47935;-63
2022/06/13 04:47:26;;;;;;;;;6.00;6.00;;;;;19.54;48.89;101780.41;2057147;28;47562;-62
2022/06/13 04:48:27;;;;;;;;;7.00;7.00;;;;;19.53;48.88;101778.66;2056350;28;48021;-62
2022/06/13 04:49:42;;;;;;;;;5.00;5.00;;;;;19.49;49.21;101781.56;2056525;28;45967;-63
2022/06/13 04:50:48;;;;;;;;;7.00;6.50;;;;;19.47;48.91;101780.75;2070375;28;48279;-61
2022/06/13 04:51:51;;;;;;;;;6.00;6.00;;;;;19.45;49.01;101779.97;2073384;28;47403;-61
2022/06/13 04:52:55;;;;;;;;;6.50;6.50;;;;;19.42;48.84;101780.94;2070572;28;47887;-63
2022/06/13 04:54:12;;;;;;;;;8.00;8.00;;;;;19.41;49.23;101782.75;2073378;28;48479;-62
2022/06/13 04:55:19;;;;;;;;;5.50;5.50;;;;;19.41;49.15;101784.56;2073041;28;47317;-62
2022/06/13 04:56:23;;;;;;;;;9.00;7.75;;;;;19.41;49.30;101781.88;2062606;28;47743;-63
2022/06/13 04:57:24;;;;;;;;;7.50;6.75;;;;;19.41;48.98;101788.13;2068056;28;47924;-60
2022/06/13 04:58:28;;;;;;;;;5.67;5.67;;;;;19.39;49.27;101781.94;2074754;28;47792;-61
2022/06/13 04:59:30;;;;;;;;;8.00;6.75;;;;;19.41;49.38;101784.56;2094771;28;47931;-60
2022/06/13 05:00:33;;;;;;;;;8.75;6.75;;;;;19.40;48.87;101780.13;2088684;28;47810;-60
2022/06/13 05:01:41;;;;;;;;;6.50;6.50;;;;;19.40;49.19;101788.19;2099952;28;48054;-61
2022/06/13 05:02:52;;;;;;;;;5.75;5.75;;;;;19.40;48.86;101780.13;2096757;27;47816;-61
2022/06/13 05:03:54;;;;;;;;;7.25;6.25;;;;;19.40;49.24;101797.16;2088212;28;47914;-63
2022/06/13 05:04:55;;;;;;;;;9.00;8.00;;;;;19.38;48.88;101798.16;2099326;28;47570;-61
2022/06/13 05:06:01;;;;;;;;;5.33;5.33;;;;;19.39;49.04;101795.41;2101121;27;47418;-63
2022/06/13 05:07:15;;;;;;;;;6.25;6.25;;;;;19.40;49.46;101798.97;2103969;28;47352;-62
2022/06/13 05:08:28;;;;;;;;;5.25;5.25;;;;;19.40;49.41;101793.59;2101365;28;47930;-61
2022/06/13 05:09:36;;;;;;;;;9.50;7.00;;;;;19.37;49.13;101791.91;2104655;27;47954;-62
2022/06/13 05:10:41;;;;;;;;;9.25;8.00;;;;;19.38;49.25;101792.78;2111672;27;47776;-62
2022/06/13 05:11:50;;;;;;;;;7.75;7.75;;;;;19.37;49.15;101786.53;2102485;28;48168;-62
2022/06/13 05:12:51;;;;;;;;;8.00;8.00;;;;;19.37;49.39;101789.22;2099694;27;47621;-62
2022/06/13 05:13:57;;;;;;;;;7.67;7.67;;;;;19.37;49.29;101793.72;2108286;27;48594;-62
2022/06/13 05:15:07;;;;;;;;;6.00;6.00;;;;;19.37;49.36;101799.09;2112396;27;47868;-61
2022/06/13 05:16:34;;;;;;;;;7.25;7.00;;;;;19.35;49.33;101792.91;2084187;28;47994;-62
2022/06/13 05:17:54;;;;;;;;;6.00;6.00;;;;;19.34;49.52;101799.25;2094156;27;47882;-63
2022/06/13 05:19:09;;;;;;;;;6.00;6.00;;;;;19.34;49.68;101800.13;2099077;27;48221;-62
2022/06/13 05:20:26;;;;;;;;;7.25;7.00;;;;;19.35;49.26;101798.28;2104177;27;47793;-62
2022/06/13 05:22:00;;;;;;;;;5.75;5.00;;;;;19.34;49.24;101799.25;2103013;27;47967;-62
2022/06/13 05:23:32;;;;;;;;;7.00;6.50;;;;;19.34;49.63;101800.13;2103355;27;47640;-62
2022/06/13 05:24:35;;;;;;;;;4.50;4.50;;;;;19.33;49.24;101797.50;2101108;27;47857;-61
2022/06/13 05:25:43;;;;;;;;;5.75;5.50;;;;;19.31;49.47;101802.94;2104795;27;46347;-61
2022/06/13 05:26:43;;;;;;;;;8.00;6.50;;;;;19.30;49.13;101793.09;2107709;27;47675;-61
2022/06/13 05:27:44;;;;;;;;;7.33;7.00;;;;;19.29;49.53;101798.53;2097238;28;48017;-62
2022/06/13 05:28:44;;;;;;;;;8.33;8.00;;;;;19.26;50.03;101791.47;2102214;28;47573;-62
2022/06/13 05:29:45;;;;;;;;;7.67;6.33;;;;;19.24;49.72;101796.03;2110256;27;48083;-62
2022/06/13 05:30:48;;;;;;;;;8.33;8.00;;;;;19.24;50.02;101793.34;2112538;27;47495;-61